Terminal Aerodrome Forecast
Issued by NWS

Home | Current Version | Previous Version | Text Only | Print | Product List | Glossary On
Versions: 1 2 3 4 5 6 7 8 9 10 11 12 13
000
FTUS45 KRIW 021121
TAFBPI
TAF
KBPI 021121Z 0212/0312 VRB06KT P6SM FEW110
     FM022000 25014G24KT P6SM SCT100
     FM030100 28008KT P6SM SCT100
     FM030800 VRB06KT P6SM VCSH BKN100=

USA.gov is the U.S. government's official web portal to all federal, state and local government web resources and services.